Time;durP1;ratioP1;P1;durP2;ratioP2;P2;SDS_P1;SDS_P2;PMS_P1;PMS_P2;Temp;Humidity;BMP_temperature;BMP_pressure;BME280_temperature;BME280_humidity;BME280_pressure;Samples;Min_cycle;Max_cycle;Signal;HPM_P1;HPM_P2
2021/06/14 00:00:33;;;;;;;;;0.00;0.00;;;;;22.61;38.83;101603.06;5112734;27;45401;-62
2021/06/14 00:02:59;;;;;;;;;0.00;0.00;;;;;22.58;39.11;101599.91;5124552;27;46364;-62
2021/06/14 00:05:33;;;;;;;;;0.00;0.00;;;;;22.58;39.37;101605.28;5124776;27;45286;-63
2021/06/14 00:08:00;;;;;;;;;0.00;0.00;;;;;22.43;38.92;101589.13;5124884;27;45500;-63
2021/06/14 00:10:28;;;;;;;;;0.00;0.00;;;;;22.52;39.26;101604.13;5124969;27;45626;-62
2021/06/14 00:12:54;;;;;;;;;0.00;0.00;;;;;22.50;39.31;101603.47;5110376;27;45409;-63
2021/06/14 00:15:20;;;;;;;;;0.00;0.00;;;;;22.45;40.42;101595.97;5124637;27;45269;-62
2021/06/14 00:17:46;;;;;;;;;0.00;0.00;;;;;22.44;39.41;101602.34;5108231;27;45173;-63
2021/06/14 00:20:13;;;;;;;;;0.00;0.00;;;;;22.42;39.81;101606.19;5104216;27;45298;-62
2021/06/14 00:22:40;;;;;;;;;0.00;0.00;;;;;22.38;39.74;101603.03;5120219;27;45311;-63
2021/06/14 00:25:08;;;;;;;;;0.00;0.00;;;;;22.34;40.16;101604.41;5124595;27;45366;-63
2021/06/14 00:27:34;;;;;;;;;0.00;0.00;;;;;22.39;39.91;101596.66;5124484;27;45216;-64
2021/06/14 00:29:59;;;;;;;;;0.00;0.00;;;;;22.40;39.99;101606.38;5124253;27;45473;-63
2021/06/14 00:32:25;;;;;;;;;0.00;0.00;;;;;22.44;39.63;101609.53;5121384;27;45334;-63
2021/06/14 00:34:50;;;;;;;;;0.00;0.00;;;;;22.43;39.52;101599.84;5113716;27;45350;-63
2021/06/14 00:37:16;;;;;;;;;0.00;0.00;;;;;22.46;39.96;101603.00;5124267;27;45342;-62
2021/06/14 00:39:41;;;;;;;;;0.00;0.00;;;;;22.43;39.68;101606.03;5124170;27;45444;-62
2021/06/14 00:42:07;;;;;;;;;0.00;0.00;;;;;22.39;39.79;101599.34;5123050;27;46039;-62
2021/06/14 00:44:32;;;;;;;;;0.00;0.00;;;;;22.36;40.17;101590.84;5124312;27;45356;-62
2021/06/14 00:46:57;;;;;;;;;0.00;0.00;;;;;22.32;40.55;101601.06;5124066;27;45494;-62
2021/06/14 00:49:23;;;;;;;;;0.00;0.00;;;;;22.31;40.51;101605.59;5114857;27;45386;-62
2021/06/14 00:51:48;;;;;;;;;0.00;0.00;;;;;22.30;40.09;101609.25;5119024;27;47149;-63
2021/06/14 00:54:14;;;;;;;;;0.00;0.00;;;;;22.31;40.50;101610.94;5123755;27;45364;-63
2021/06/14 00:56:39;;;;;;;;;0.00;0.00;;;;;22.30;40.17;101609.25;5123745;27;45293;-62
2021/06/14 00:59:04;;;;;;;;;0.00;0.00;;;;;22.29;40.23;101596.91;5123813;27;45366;-63
2021/06/14 01:01:30;;;;;;;;;0.00;0.00;;;;;22.27;40.43;101601.59;5123860;27;46429;-63
2021/06/14 01:03:55;;;;;;;;;0.00;0.00;;;;;22.22;40.88;101595.91;5123426;27;45317;-63
2021/06/14 01:06:21;;;;;;;;;0.00;0.00;;;;;22.25;40.83;101600.94;5123637;27;45361;-62
2021/06/14 01:08:49;;;;;;;;;0.00;0.00;;;;;22.25;40.72;101600.13;5124045;27;45362;-63
2021/06/14 01:11:37;;;;;;;;;0.00;0.00;;;;;22.25;40.98;101595.59;5121505;27;45256;-62
2021/06/14 01:14:09;;;;;;;;;0.00;0.00;;;;;22.23;41.15;101592.25;5114845;27;45419;-63
2021/06/14 01:16:57;;;;;;;;;0.00;0.00;;;;;22.22;41.33;101590.56;5123655;27;45213;-62
2021/06/14 01:19:45;;;;;;;;;0.00;0.00;;;;;22.21;40.99;101598.75;5123415;27;45354;-62
2021/06/14 01:22:38;;;;;;;;;0.00;0.00;;;;;22.21;41.16;101598.75;5110765;27;46636;-63
2021/06/14 01:25:09;;;;;;;;;0.00;0.00;;;;;22.16;41.40;101591.25;5112298;27;45331;-62
2021/06/14 01:27:40;;;;;;;;;0.00;0.00;;;;;22.15;41.40;101592.25;5123588;27;45433;-62
2021/06/14 01:30:11;;;;;;;;;0.00;0.00;;;;;22.13;41.64;101591.59;5123672;27;45626;-62
2021/06/14 01:32:40;;;;;;;;;0.00;0.00;;;;;22.10;41.96;101583.94;5123131;27;46191;-61
2021/06/14 01:35:09;;;;;;;;;0.00;0.00;;;;;22.04;41.77;101577.41;5122913;27;45344;-62
2021/06/14 01:37:41;;;;;;;;;0.00;0.00;;;;;22.06;41.45;101574.59;5122677;27;45222;-63
2021/06/14 01:40:08;;;;;;;;;0.00;0.00;;;;;22.03;41.47;101574.91;5110407;27;45379;-62
2021/06/14 01:42:35;;;;;;;;;0.00;0.00;;;;;21.99;41.68;101571.78;5102725;27;45568;-62
2021/06/14 01:45:01;;;;;;;;;0.00;0.00;;;;;21.97;41.67;101568.44;5116703;27;45230;-62
2021/06/14 01:47:27;;;;;;;;;0.00;0.00;;;;;21.99;41.85;101569.09;5123686;27;45210;-62
2021/06/14 01:49:53;;;;;;;;;0.00;0.00;;;;;22.00;41.91;101570.75;5123346;27;45438;-62
2021/06/14 01:52:19;;;;;;;;;0.00;0.00;;;;;21.98;42.13;101555.88;5122297;27;46081;-61
2021/06/14 01:54:45;;;;;;;;;0.00;0.00;;;;;21.95;42.11;101551.72;5122557;27;45400;-62
2021/06/14 01:57:13;;;;;;;;;0.00;0.00;;;;;21.84;42.42;101547.59;5116074;27;45279;-62
2021/06/14 01:59:39;;;;;;;;;0.00;0.00;;;;;21.73;43.35;101553.34;5116706;27;45238;-62
2021/06/14 02:02:07;;;;;;;;;0.00;0.00;;;;;21.66;42.96;101538.97;5122843;27;46202;-63
2021/06/14 02:04:34;;;;;;;;;0.00;0.00;;;;;21.56;43.14;101539.19;5122858;27;45390;-63
2021/06/14 02:07:00;;;;;;;;;3.00;3.00;;;;;21.46;43.10;101539.34;5123132;27;45402;-63
2021/06/14 02:09:25;;;;;;;;;0.00;0.00;;;;;21.41;43.30;101541.72;5122172;27;45328;-63
2021/06/14 02:11:54;;;;;;;;;0.00;0.00;;;;;21.33;43.81;101539.03;5104037;27;45521;-62
2021/06/14 02:14:43;;;;;;;;;0.00;0.00;;;;;21.28;43.74;101542.22;5116830;27;45274;-62
2021/06/14 02:17:11;;;;;;;;;0.00;0.00;;;;;21.25;44.10;101539.03;5122835;27;45391;-62
2021/06/14 02:19:38;;;;;;;;;0.00;0.00;;;;;21.27;44.24;101543.22;5122893;27;45416;-63
2021/06/14 02:22:04;;;;;;;;;0.00;0.00;;;;;21.28;43.67;101531.53;5122272;27;46294;-62
2021/06/14 02:24:30;;;;;;;;;0.00;0.00;;;;;21.29;44.09;101535.88;5122377;27;45432;-63
2021/06/14 02:26:55;;;;;;;;;0.00;0.00;;;;;21.31;44.15;101531.19;5111254;27;45302;-62
2021/06/14 02:29:20;;;;;;;;;0.00;0.00;;;;;21.33;44.03;101519.50;5102036;27;45193;-63
2021/06/14 02:31:46;;;;;;;;;0.00;0.00;;;;;21.33;43.86;101519.50;5101999;27;45408;-63
2021/06/14 02:34:11;;;;;;;;;0.00;0.00;;;;;21.26;44.82;101512.16;5120197;27;45228;-62
2021/06/14 02:36:37;;;;;;;;;0.00;0.00;;;;;21.20;45.35;101506.66;5103980;27;45683;-63
2021/06/14 02:39:11;;;;;;;;;0.00;0.00;;;;;21.14;45.13;101512.69;5122633;27;45303;-63
2021/06/14 02:41:37;;;;;;;;;0.00;0.00;;;;;20.99;45.07;101497.38;5122034;27;45641;-62
2021/06/14 02:44:05;;;;;;;;;0.00;0.00;;;;;20.92;45.44;101504.38;5102762;27;45452;-62
2021/06/14 02:46:35;;;;;;;;;0.00;0.00;;;;;20.81;45.69;101508.22;5102062;27;45349;-62
2021/06/14 02:49:01;;;;;;;;;0.00;0.00;;;;;20.79;45.20;101506.72;5122413;27;45332;-62
2021/06/14 02:51:30;;;;;;;;;0.00;0.00;;;;;20.74;45.52;101509.06;5122272;27;45398;-62
2021/06/14 02:54:04;;;;;;;;;0.00;0.00;;;;;20.73;45.14;101504.72;5122362;27;45382;-62
2021/06/14 02:56:32;;;;;;;;;0.00;0.00;;;;;20.75;45.59;101514.22;5122126;27;45403;-62
2021/06/14 02:59:00;;;;;;;;;0.00;0.00;;;;;20.72;45.54;101511.06;5122202;27;45558;-63
2021/06/14 03:01:26;;;;;;;;;0.00;0.00;;;;;20.67;45.83;101501.72;5106153;27;45309;-63
2021/06/14 03:03:56;;;;;;;;;0.00;0.00;;;;;20.62;45.88;101505.88;5116659;27;45743;-63
2021/06/14 03:06:22;;;;;;;;;0.00;0.00;;;;;20.56;46.39;101507.38;5124458;27;45425;-62
2021/06/14 03:08:49;;;;;;;;;0.00;0.00;;;;;20.54;45.84;101504.03;5126195;27;45493;-62
2021/06/14 03:11:14;;;;;;;;;0.00;0.00;;;;;20.54;45.98;101514.72;5123413;27;45257;-62
2021/06/14 03:13:45;;;;;;;;;0.00;0.00;;;;;20.51;46.44;101506.19;5118412;27;45256;-63
2021/06/14 03:16:16;;;;;;;;;0.00;0.00;;;;;20.52;45.86;101510.50;5108873;27;45480;-63
2021/06/14 03:18:44;;;;;;;;;0.00;0.00;;;;;20.48;46.97;101505.50;5109238;27;45621;-62
2021/06/14 03:21:10;;;;;;;;;0.00;0.00;;;;;20.38;46.80;101501.34;5125203;27;45608;-62
2021/06/14 03:23:36;;;;;;;;;0.00;0.00;;;;;20.35;46.92;101510.50;5125464;27;45256;-62
2021/06/14 03:26:04;;;;;;;;;0.00;0.00;;;;;20.35;46.45;101512.34;5125598;27;45321;-61
2021/06/14 03:28:29;;;;;;;;;0.00;0.00;;;;;20.34;46.40;101513.34;5125817;27;45552;-62
2021/06/14 03:30:54;;;;;;;;;0.00;0.00;;;;;20.28;46.87;101510.34;5106647;27;46256;-62
2021/06/14 03:33:21;;;;;;;;;0.00;0.00;;;;;20.28;47.86;101504.16;5124535;27;45214;-63
2021/06/14 03:35:48;;;;;;;;;0.00;0.00;;;;;20.28;47.53;101510.34;5121437;27;45228;-62
2021/06/14 03:38:15;;;;;;;;;0.00;0.00;;;;;20.33;46.56;101509.00;5104982;27;45401;-62
2021/06/14 03:40:40;;;;;;;;;0.00;0.00;;;;;20.35;47.25;101513.19;5122115;27;45568;-62
2021/06/14 03:43:06;;;;;;;;;0.00;0.00;;;;;20.38;46.69;101512.84;5124346;27;45332;-62
2021/06/14 03:45:33;;;;;;;;;0.00;0.00;;;;;20.39;46.92;101519.84;5121421;27;45348;-62
2021/06/14 03:47:58;;;;;;;;;0.00;0.00;;;;;20.41;46.88;101517.00;5104821;27;45242;-62
2021/06/14 03:50:24;;;;;;;;;0.00;0.00;;;;;20.45;46.97;101521.00;5104154;27;46081;-62
2021/06/14 03:52:50;;;;;;;;;0.00;0.00;;;;;20.48;46.66;101524.19;5115170;27;45245;-62
2021/06/14 03:55:16;;;;;;;;;0.00;0.00;;;;;20.51;46.62;101523.03;5125004;27;45268;-63
2021/06/14 03:57:42;;;;;;;;;0.00;0.00;;;;;20.55;46.28;101528.88;5125352;27;45163;-62
2021/06/14 04:00:14;;;;;;;;;0.00;0.00;;;;;20.56;46.32;101535.88;5124414;27;45347;-63
2021/06/14 04:02:40;;;;;;;;;0.00;0.00;;;;;20.56;46.60;101539.41;5105916;27;45208;-62
2021/06/14 04:05:07;;;;;;;;;0.00;0.00;;;;;20.55;46.59;101536.88;5124421;27;45391;-62
2021/06/14 04:07:32;;;;;;;;;0.00;0.00;;;;;20.53;46.43;101533.53;5106593;27;45334;-63
2021/06/14 04:09:59;;;;;;;;;0.00;0.00;;;;;20.54;46.36;101533.38;5124541;27;45363;-62
2021/06/14 04:12:27;;;;;;;;;0.00;0.00;;;;;20.55;46.83;101531.53;5114823;27;45304;-61
2021/06/14 04:14:52;;;;;;;;;0.00;0.00;;;;;20.56;46.88;101527.84;5118952;27;45423;-62
2021/06/14 04:17:17;;;;;;;;;0.00;0.00;;;;;20.56;46.65;101527.84;5103163;27;45215;-62
2021/06/14 04:19:43;;;;;;;;;0.00;0.00;;;;;20.55;46.57;101535.03;5123827;27;45247;-63
2021/06/14 04:22:08;;;;;;;;;0.00;0.00;;;;;20.55;47.28;101528.88;5124116;27;45352;-63
2021/06/14 04:24:33;;;;;;;;;0.00;0.00;;;;;20.56;47.07;101535.88;5124773;27;45400;-62
2021/06/14 04:26:59;;;;;;;;;0.00;0.00;;;;;20.55;46.78;101534.22;5125061;27;45217;-62
2021/06/14 04:29:25;;;;;;;;;0.00;0.00;;;;;20.56;46.74;101533.19;5123724;27;46396;-62
2021/06/14 04:31:50;;;;;;;;;0.00;0.00;;;;;20.56;47.10;101533.19;5124460;27;45224;-62
2021/06/14 04:34:15;;;;;;;;;0.00;0.00;;;;;20.54;47.08;101540.53;5104423;27;45321;-62
2021/06/14 04:36:41;;;;;;;;;0.00;0.00;;;;;20.52;47.14;101537.19;5116844;27;45263;-62
2021/06/14 04:39:06;;;;;;;;;0.00;0.00;;;;;20.53;46.87;101541.53;5124232;27;47107;-62
2021/06/14 04:41:32;;;;;;;;;0.00;0.00;;;;;20.52;47.00;101546.06;5124110;27;45330;-62
2021/06/14 04:43:58;;;;;;;;;0.00;0.00;;;;;20.49;46.66;101541.84;5124144;27;45286;-63
2021/06/14 04:46:23;;;;;;;;;0.00;0.00;;;;;20.54;47.08;101552.06;5124548;27;45297;-63
2021/06/14 04:48:49;;;;;;;;;0.00;0.00;;;;;20.56;47.07;101558.06;5123556;27;45408;-63
2021/06/14 04:51:14;;;;;;;;;0.00;0.00;;;;;20.55;47.00;101561.72;5110702;27;45371;-63
2021/06/14 04:53:40;;;;;;;;;0.00;0.00;;;;;20.56;46.86;101552.75;5103107;27;45466;-63
2021/06/14 04:56:06;;;;;;;;;0.00;0.00;;;;;20.56;46.91;101547.41;5103365;27;45480;-63
2021/06/14 04:58:32;;;;;;;;;0.00;0.00;;;;;20.57;46.85;101557.09;5103193;27;46565;-63
2021/06/14 05:00:58;;;;;;;;;0.00;0.00;;;;;20.55;47.06;101551.06;5103141;27;45183;-63
2021/06/14 05:03:23;;;;;;;;;0.00;0.00;;;;;20.58;46.98;101558.78;5112728;27;45390;-62
2021/06/14 05:05:48;;;;;;;;;0.00;0.00;;;;;20.60;46.63;101566.59;5123761;27;45427;-62
2021/06/14 05:08:18;;;;;;;;;0.00;0.00;;;;;20.61;46.80;101574.44;5123437;27;45296;-62
2021/06/14 05:10:43;;;;;;;;;0.00;0.00;;;;;20.60;46.71;101572.75;5123245;27;45419;-63
2021/06/14 05:13:09;;;;;;;;;0.00;0.00;;;;;20.61;46.88;101577.13;5111976;27;45405;-62
2021/06/14 05:15:34;;;;;;;;;0.00;0.00;;;;;20.63;46.80;101576.97;5112043;27;45371;-63
2021/06/14 05:17:59;;;;;;;;;0.00;0.00;;;;;20.64;46.78;101581.28;5121157;27;45273;-63
2021/06/14 05:20:25;;;;;;;;;0.00;0.00;;;;;20.63;47.13;101582.31;5123410;27;45438;-63
2021/06/14 05:22:50;;;;;;;;;0.00;0.00;;;;;20.65;46.85;101586.47;5123420;27;45289;-63
2021/06/14 05:25:15;;;;;;;;;0.00;0.00;;;;;20.70;47.04;101585.97;5123982;27;45475;-63
2021/06/14 05:27:41;;;;;;;;;0.00;0.00;;;;;20.70;46.54;101580.63;5122624;27;45313;-62
2021/06/14 05:30:07;;;;;;;;;0.00;0.00;;;;;20.75;46.58;101585.47;5123139;27;45416;-63
2021/06/14 05:32:32;;;;;;;;;0.00;0.00;;;;;20.76;46.63;101587.16;5119046;27;45481;-64
2021/06/14 05:34:59;;;;;;;;;0.00;0.00;;;;;20.77;47.04;101581.63;5102641;27;45447;-63
2021/06/14 05:37:24;;;;;;;;;0.00;0.00;;;;;20.77;46.86;101583.47;5102311;27;46541;-63
2021/06/14 05:39:49;;;;;;;;;0.00;0.00;;;;;20.81;46.66;101579.47;5102663;27;45405;-62
2021/06/14 05:42:15;;;;;;;;;0.00;0.00;;;;;20.84;46.79;101581.81;5119385;27;45439;-63
2021/06/14 05:44:40;;;;;;;;;0.00;0.00;;;;;20.82;46.89;101573.97;5122794;27;45223;-63
2021/06/14 05:47:05;;;;;;;;;0.00;0.00;;;;;20.86;46.51;101582.47;5121938;27;45265;-63
2021/06/14 05:49:31;;;;;;;;;0.00;0.00;;;;;20.84;46.61;101577.31;5112592;27;45370;-63
2021/06/14 05:51:57;;;;;;;;;0.00;0.00;;;;;20.87;46.97;101573.47;5118734;27;45751;-62
2021/06/14 05:54:22;;;;;;;;;0.00;0.00;;;;;20.96;46.78;101579.66;5122854;27;45251;-62
2021/06/14 05:56:48;;;;;;;;;0.00;0.00;;;;;21.06;47.04;101570.47;5122272;27;45368;-62
2021/06/14 05:59:13;;;;;;;;;0.00;0.00;;;;;21.20;46.36;101576.97;5122117;27;45381;-63
2021/06/14 06:01:38;;;;;;;;;0.00;0.00;;;;;21.33;46.47;101564.94;5121815;27;45359;-62
2021/06/14 06:04:04;;;;;;;;;0.00;0.00;;;;;21.44;45.94;101576.09;5122283;27;45254;-63
2021/06/14 06:06:29;;;;;;;;;0.00;0.00;;;;;21.52;45.92;101572.59;5118279;27;46334;-63
2021/06/14 06:08:54;;;;;;;;;0.00;0.00;;;;;21.58;45.48;101582.63;5112173;27;45497;-63
2021/06/14 06:11:20;;;;;;;;;0.00;0.00;;;;;21.74;45.19;101588.91;5118495;27;45329;-63
2021/06/14 06:13:47;;;;;;;;;0.00;0.00;;;;;22.17;44.51;101579.53;5111243;27;45350;-64
2021/06/14 06:16:13;;;;;;;;;0.00;0.00;;;;;22.76;43.94;101586.22;5121705;27;46215;-63
2021/06/14 06:18:38;;;;;;;;;0.00;0.00;;;;;23.33;43.25;101583.94;5103507;27;45254;-62
2021/06/14 06:21:04;;;;;;;;;0.00;0.00;;;;;23.88;42.31;101581.00;5099324;27;45429;-63
2021/06/14 06:23:29;;;;;;;;;0.00;0.00;;;;;24.40;40.41;101584.50;5112876;27;45482;-62
2021/06/14 06:25:54;;;;;;;;;0.00;0.00;;;;;24.84;40.33;101586.22;5104494;27;45289;-63
2021/06/14 06:28:20;;;;;;;;;0.00;0.00;;;;;25.25;39.50;101578.34;5111272;27;45240;-62
2021/06/14 06:30:46;;;;;;;;;0.00;0.00;;;;;25.68;38.68;101571.94;5121546;27;45302;-62
2021/06/14 06:33:11;;;;;;;;;0.00;0.00;;;;;26.13;38.13;101567.00;5121125;27;45384;-62
2021/06/14 06:35:38;;;;;;;;;0.00;0.00;;;;;26.57;37.44;101574.59;5117323;27;46416;-63
2021/06/14 06:38:04;;;;;;;;;0.00;0.00;;;;;26.93;36.65;101568.00;5100487;27;45461;-62
2021/06/14 06:40:29;;;;;;;;;0.00;0.00;;;;;27.17;36.20;101571.09;5102407;27;45296;-62
2021/06/14 06:42:56;;;;;;;;;0.00;0.00;;;;;27.31;35.77;101561.16;5104800;27;45409;-62
2021/06/14 06:45:23;;;;;;;;;0.00;0.00;;;;;27.47;35.63;101565.25;5122383;27;45527;-63
2021/06/14 06:47:48;;;;;;;;;0.00;0.00;;;;;27.59;35.02;101559.00;5125711;27;45253;-62
2021/06/14 06:50:14;;;;;;;;;0.00;0.00;;;;;27.81;34.65;101559.53;5124410;27;45202;-61
2021/06/14 06:52:40;;;;;;;;;0.00;0.00;;;;;28.09;34.35;101558.41;5113288;27;45555;-63
2021/06/14 06:55:08;;;;;;;;;0.00;0.00;;;;;28.38;33.78;101559.72;5104604;27;45443;-63
2021/06/14 06:57:34;;;;;;;;;0.00;0.00;;;;;28.61;32.97;101561.03;5104717;27;45396;-62
2021/06/14 06:59:59;;;;;;;;;0.00;0.00;;;;;28.80;32.90;101565.47;5103840;27;45323;-62
2021/06/14 07:02:25;;;;;;;;;0.00;0.00;;;;;29.01;32.15;101569.66;5125827;27;45380;-62
2021/06/14 07:04:51;;;;;;;;;0.00;0.00;;;;;29.11;31.91;101562.94;5124714;27;46459;-62
2021/06/14 07:07:16;;;;;;;;;0.00;0.00;;;;;29.22;31.96;101557.63;5124901;27;45324;-63
2021/06/14 07:09:41;;;;;;;;;0.00;0.00;;;;;29.35;31.73;101555.81;5121843;27;45315;-63
2021/06/14 07:12:07;;;;;;;;;0.00;0.00;;;;;29.47;30.52;101554.03;5106370;27;45448;-62
2021/06/14 07:14:32;;;;;;;;;0.00;0.00;;;;;29.53;31.10;101565.84;5120573;27;45307;-62
2021/06/14 07:16:58;;;;;;;;;0.00;0.00;;;;;29.62;30.90;101551.78;5125107;27;46436;-63
2021/06/14 07:19:23;;;;;;;;;0.00;0.00;;;;;29.79;29.55;101556.63;5125463;27;45298;-62
2021/06/14 07:21:48;;;;;;;;;0.00;0.00;;;;;29.95;29.78;101547.84;5124948;27;45474;-62
2021/06/14 07:24:14;;;;;;;;;0.00;0.00;;;;;30.15;27.80;101555.72;5124095;27;46432;-62
2021/06/14 07:26:39;;;;;;;;;0.00;0.00;;;;;30.08;28.21;101544.13;5105897;27;45306;-62
2021/06/14 07:29:05;;;;;;;;;0.50;0.50;;;;;30.14;28.22;101545.94;5103429;27;45873;-63
2021/06/14 07:31:30;;;;;;;;;0.00;0.00;;;;;30.11;29.07;101543.69;5113638;27;45394;-63
2021/06/14 07:34:01;;;;;;;;;0.00;0.00;;;;;30.44;28.72;101545.13;5124892;27;46254;-62
2021/06/14 07:36:28;;;;;;;;;0.00;0.00;;;;;30.91;28.48;101537.09;5124648;27;45278;-63
2021/06/14 07:38:55;;;;;;;;;0.00;0.00;;;;;31.35;28.42;101540.22;5124851;27;45268;-63
2021/06/14 07:41:20;;;;;;;;;0.00;0.00;;;;;31.66;27.69;101549.88;5124429;27;45176;-63
2021/06/14 07:43:46;;;;;;;;;0.00;0.00;;;;;31.81;26.37;101549.34;5102058;27;46171;-62
2021/06/14 07:46:11;;;;;;;;;0.00;0.00;;;;;32.01;27.26;101543.53;5113742;27;45287;-63
2021/06/14 07:48:36;;;;;;;;;0.00;0.00;;;;;32.41;26.61;101545.31;5124173;27;45382;-62
2021/06/14 07:51:04;;;;;;;;;0.00;0.00;;;;;32.78;26.00;101541.31;5124137;27;45249;-63
2021/06/14 07:53:29;;;;;;;;;0.00;0.00;;;;;33.16;26.34;101529.66;5124099;27;46761;-62
2021/06/14 07:55:56;;;;;;;;;0.00;0.00;;;;;33.41;25.63;101536.50;5124567;27;45331;-62
2021/06/14 07:58:22;;;;;;;;;0.00;0.00;;;;;33.64;24.16;101530.00;5120972;27;45315;-62
2021/06/14 08:00:47;;;;;;;;;0.00;0.00;;;;;33.95;24.90;101533.06;5113431;27;45243;-62
2021/06/14 08:03:13;;;;;;;;;0.00;0.00;;;;;34.35;25.02;101532.66;5122408;27;45471;-62
2021/06/14 08:05:38;;;;;;;;;0.00;0.00;;;;;34.76;24.51;101535.75;5123576;27;45346;-63
2021/06/14 08:08:05;;;;;;;;;0.00;0.00;;;;;35.12;23.70;101536.78;5107348;27;45452;-63
2021/06/14 08:10:30;;;;;;;;;0.00;0.00;;;;;35.26;23.49;101528.16;5103671;27;45651;-63
2021/06/14 08:12:56;;;;;;;;;0.00;0.00;;;;;35.46;23.33;101535.59;5110576;27;45831;-63
2021/06/14 08:15:25;;;;;;;;;0.00;0.00;;;;;35.78;22.30;101535.47;5114642;27;45212;-62
2021/06/14 08:17:54;;;;;;;;;0.00;0.00;;;;;35.81;22.44;101528.63;5102923;27;45325;-63
2021/06/14 08:25:38;;;;;;;;;0.00;0.00;;;;;36.29;22.00;101521.09;5123535;27;45281;-62
2021/06/14 08:28:05;;;;;;;;;0.00;0.00;;;;;36.38;21.22;101516.69;5123457;27;45247;-63
2021/06/14 08:30:31;;;;;;;;;0.00;0.00;;;;;36.36;21.65;101518.88;5123321;27;45682;-63
2021/06/14 08:32:58;;;;;;;;;0.00;0.00;;;;;36.53;21.68;101510.41;5116236;27;46270;-63
2021/06/14 08:35:26;;;;;;;;;0.00;0.00;;;;;36.99;20.88;101504.84;5116812;27;45324;-62
2021/06/14 08:37:53;;;;;;;;;0.00;0.00;;;;;37.33;21.02;101513.25;5123430;27;45336;-65
2021/06/14 08:40:22;;;;;;;;;0.00;0.00;;;;;37.79;20.83;101503.97;5123877;27;45258;-63
2021/06/14 08:42:49;;;;;;;;;0.00;0.00;;;;;38.53;19.62;101499.34;5123253;27;46367;-62
2021/06/14 08:45:15;;;;;;;;;0.00;0.00;;;;;39.72;18.82;101501.47;5122719;27;45403;-64
2021/06/14 08:47:42;;;;;;;;;0.00;0.00;;;;;41.17;18.13;101507.00;5122973;27;45435;-64
2021/06/14 08:50:10;;;;;;;;;0.00;0.00;;;;;42.71;17.18;101503.31;5108587;27;45510;-62
2021/06/14 08:52:37;;;;;;;;;0.00;0.00;;;;;44.37;15.61;101507.84;5102148;27;48479;-63
2021/06/14 08:55:05;;;;;;;;;0.00;0.00;;;;;46.21;13.97;101497.16;5098595;27;45338;-64
2021/06/14 08:57:31;;;;;;;;;0.00;0.00;;;;;47.67;12.54;101496.63;5104566;27;45335;-63
2021/06/14 08:59:56;;;;;;;;;0.00;0.00;;;;;49.00;9.54;101495.28;5122954;27;45338;-62
2021/06/14 09:02:21;;;;;;;;;0.00;0.00;;;;;50.04;11.12;101489.03;5122384;27;45369;-63
2021/06/14 09:04:47;;;;;;;;;0.00;0.00;;;;;51.32;8.96;101493.38;5121578;27;45293;-64
2021/06/14 09:07:12;;;;;;;;;0.00;0.00;;;;;52.22;9.58;101498.78;5113546;27;45369;-64
2021/06/14 09:09:38;;;;;;;;;0.00;0.00;;;;;52.67;8.85;101487.50;5118937;27;45218;-63
2021/06/14 09:12:04;;;;;;;;;0.00;0.00;;;;;53.57;8.53;101490.75;5113631;27;45317;-63
2021/06/14 09:14:31;;;;;;;;;0.00;0.00;;;;;54.51;8.00;101484.00;5118214;27;45345;-63
2021/06/14 09:17:17;;;;;;;;;0.00;0.00;;;;;55.48;7.60;101484.47;5123005;27;45253;-63
2021/06/14 09:19:49;;;;;;;;;0.00;0.00;;;;;55.92;6.54;101493.41;5122299;27;45508;-63
2021/06/14 09:22:20;;;;;;;;;0.00;0.00;;;;;56.34;6.34;101488.69;5122025;27;46082;-63
2021/06/14 09:24:59;;;;;;;;;0.00;0.00;;;;;56.82;5.17;101484.13;5115580;27;45400;-63
2021/06/14 09:27:46;;;;;;;;;0.00;0.00;;;;;57.10;6.02;101480.94;5101658;27;45146;-63
2021/06/14 09:30:23;;;;;;;;;0.00;0.00;;;;;57.39;6.05;101479.75;5113597;27;45535;-63
2021/06/14 09:32:56;;;;;;;;;1.00;1.00;;;;;57.57;5.69;101480.31;5122239;27;45354;-62
2021/06/14 09:35:23;;;;;;;;;0.00;0.00;;;;;57.29;5.64;101485.16;5122420;27;45218;-63
2021/06/14 09:37:56;;;;;;;;;0.00;0.00;;;;;56.77;6.27;101470.47;5122298;27;45577;-64
2021/06/14 09:40:27;;;;;;;;;0.00;0.00;;;;;55.71;5.87;101477.50;5107259;27;45444;-64
2021/06/14 09:42:53;;;;;;;;;0.00;0.00;;;;;54.57;6.33;101470.34;5100989;27;46064;-63
2021/06/14 09:45:23;;;;;;;;;0.00;0.00;;;;;53.73;7.30;101463.09;5116704;27;45168;-63
2021/06/14 09:47:52;;;;;;;;;0.00;0.00;;;;;53.19;7.88;101464.97;5122112;27;45338;-63
2021/06/14 09:50:24;;;;;;;;;0.00;0.00;;;;;52.85;7.84;101468.00;5122000;27;45384;-63
2021/06/14 09:53:11;;;;;;;;;0.00;0.00;;;;;52.51;7.10;101456.94;5121161;27;46710;-64
2021/06/14 09:55:37;;;;;;;;;0.00;0.00;;;;;52.26;7.65;101470.78;5115761;27;45354;-63
2021/06/14 09:58:25;;;;;;;;;0.00;0.00;;;;;51.64;7.73;101468.56;5101544;27;45271;-63
2021/06/14 10:01:02;;;;;;;;;0.00;0.00;;;;;51.35;8.04;101462.66;5110594;27;45305;-63
2021/06/14 10:03:39;;;;;;;;;0.00;0.00;;;;;51.20;8.22;101464.47;5121621;27;45352;-63
2021/06/14 10:06:05;;;;;;;;;0.00;0.00;;;;;51.09;8.16;101463.53;5121525;27;45429;-65
2021/06/14 10:08:32;;;;;;;;;0.00;0.00;;;;;51.37;8.01;101465.06;5121655;27;45373;-64
2021/06/14 10:11:08;;;;;;;;;0.00;0.00;;;;;51.88;7.46;101462.44;5110360;27;45475;-63
2021/06/14 10:13:37;;;;;;;;;0.00;0.00;;;;;52.68;7.38;101458.25;5113511;27;46935;-64
2021/06/14 10:16:10;;;;;;;;;0.00;0.00;;;;;53.66;6.80;101463.88;5100830;27;45446;-64
2021/06/14 10:18:41;;;;;;;;;0.00;0.00;;;;;54.85;6.62;101470.25;5101047;27;45243;-64
2021/06/14 10:21:29;;;;;;;;;0.00;0.00;;;;;56.14;5.88;101467.88;5118043;27;45372;-64
2021/06/14 10:23:57;;;;;;;;;0.00;0.00;;;;;57.20;4.75;101467.91;5121006;27;46511;-64
2021/06/14 10:26:24;;;;;;;;;0.00;0.00;;;;;57.46;4.37;101471.16;5121278;27;45915;-63
2021/06/14 10:28:49;;;;;;;;;0.00;0.00;;;;;57.98;4.52;101469.97;5107679;27;45367;-64
2021/06/14 10:31:16;;;;;;;;;0.00;0.00;;;;;58.09;3.80;101470.59;5120853;27;45452;-63
2021/06/14 10:33:41;;;;;;;;;0.00;0.00;;;;;57.83;4.39;101469.41;5121011;27;47096;-64
2021/06/14 10:36:09;;;;;;;;;0.00;0.00;;;;;57.70;4.06;101470.03;5121215;27;45368;-63
2021/06/14 10:38:39;;;;;;;;;0.00;0.00;;;;;57.41;3.88;101466.00;5120749;27;45218;-64
2021/06/14 10:41:05;;;;;;;;;0.00;0.00;;;;;55.90;4.68;101473.31;5120560;27;45541;-63
2021/06/14 10:43:31;;;;;;;;;0.00;0.00;;;;;53.94;5.07;101462.34;5119941;27;45518;-63
2021/06/14 10:45:57;;;;;;;;;0.00;0.00;;;;;52.25;6.11;101466.38;5100515;27;45175;-63
2021/06/14 10:48:25;;;;;;;;;0.00;0.00;;;;;50.69;6.86;101465.72;5100216;27;45330;-62
2021/06/14 10:50:52;;;;;;;;;0.00;0.00;;;;;49.59;7.23;101459.84;5107469;27;45165;-63
2021/06/14 10:53:26;;;;;;;;;0.00;0.00;;;;;48.79;7.67;101459.31;5120720;27;46167;-63
2021/06/14 10:55:52;;;;;;;;;0.00;0.00;;;;;47.90;7.80;101455.13;5120958;27;45304;-63
2021/06/14 10:58:19;;;;;;;;;0.00;0.00;;;;;47.44;8.16;101447.06;5121348;27;45239;-63
2021/06/14 11:00:44;;;;;;;;;0.00;0.00;;;;;46.97;8.40;101455.19;5121187;27;45498;-64
2021/06/14 11:03:12;;;;;;;;;0.00;0.00;;;;;46.58;8.75;101455.56;5108283;27;45686;-63
2021/06/14 11:05:46;;;;;;;;;0.00;0.00;;;;;46.68;8.51;101448.75;5120914;27;45313;-63
2021/06/14 11:08:22;;;;;;;;;0.00;0.00;;;;;46.72;8.40;101446.88;5120166;27;45759;-63
2021/06/14 11:11:00;;;;;;;;;0.00;0.00;;;;;46.61;8.42;101446.53;5121418;27;45320;-64
2021/06/14 11:13:26;;;;;;;;;0.00;0.00;;;;;46.32;8.49;101446.75;5113560;27;46214;-63
2021/06/14 11:15:57;;;;;;;;;0.00;0.00;;;;;45.84;8.95;101449.06;5100084;27;45275;-64
2021/06/14 11:18:25;;;;;;;;;0.00;0.00;;;;;45.28;8.89;101440.28;5114831;27;45262;-63
2021/06/14 11:21:07;;;;;;;;;0.00;0.00;;;;;44.68;9.11;101442.25;5105736;27;45423;-64
2021/06/14 11:23:33;;;;;;;;;0.00;0.00;;;;;44.27;8.87;101441.75;5100394;27;45372;-63
2021/06/14 11:25:58;;;;;;;;;0.00;0.00;;;;;43.67;9.24;101446.28;5117029;27;45238;-63
2021/06/14 11:28:39;;;;;;;;;0.00;0.00;;;;;42.91;9.01;101425.38;5124103;27;45248;-63
2021/06/14 11:31:17;;;;;;;;;0.00;0.00;;;;;42.34;9.81;101441.88;5124605;27;45336;-65
2021/06/14 11:33:43;;;;;;;;;0.00;0.00;;;;;41.64;9.35;101437.84;5123972;27;46501;-64